サマーラ の空港の天気 - METARとTAF

クルモフ国際空港 ( UWWW / KUF ) - ロシア サマーラ
飛行場実況気象(Metar)
観測時間07/19 06:30 MSK (07/19 03:30 UTC)
風向・風速西 3m/s
視程10km以上
天気現象
なし
気温21℃
湿度78%
気圧1009hPa
METARUWWW 190330Z 27003MPS 220V330 CAVOK 21/17 Q1009 R33/CLRD60 NOSIG RMK QFE746/0995
過去の天気等 Google飛行場航空写真 Wunderground天気予報

過去48時間のMETAR

飛行場予報(TAF)
発表時間: 7/19 05:00 MSK (7/19 02:00 UTC)
予報対象時間: 19日6時 MSK ~ 20日6時 MSK
風向・風速西 3m/s 瞬間風速 9m/s
視程10km以上
全天の4割程度の雲 雲底高度 910m
19日8時 MSK ~ 19日18時 MSK に一時的に
風向・風速西北西 6m/s 瞬間風速 12m/s
19日18時 MSK ~ 20日3時 MSK に一時的に
風向・風速西南西 3m/s
TAF UWWW 190200Z 1903/2003 27003G09MPS 9999 SCT030 TX28/1911Z TN17/2001Z
TEMPO 1905/1915 29006G12MPS
TEMPO 1915/1924 24003MPS